Time;durP1;ratioP1;P1;durP2;ratioP2;P2;SDS_P1;SDS_P2;PMS_P1;PMS_P2;Temp;Humidity;BMP_temperature;BMP_pressure;BME280_temperature;BME280_humidity;BME280_pressure;Samples;Min_cycle;Max_cycle;Signal;HPM_P1;HPM_P2
2021/06/25 00:01:49;;;;;;;29.85;19.73;;;;;;;16.60;69.67;99967.66;4993226;28;20482;-70
2021/06/25 00:04:14;;;;;;;26.15;20.35;;;;;;;16.59;69.55;99960.63;5010228;28;20030;-71
2021/06/25 00:06:39;;;;;;;21.70;18.60;;;;;;;16.58;70.03;99961.59;5010133;28;20045;-71
2021/06/25 00:09:05;;;;;;;25.25;22.08;;;;;;;16.57;70.31;99959.91;5010443;28;20042;-74
2021/06/25 00:11:30;;;;;;;26.52;23.27;;;;;;;16.55;69.99;99953.84;5010241;28;20113;-71
2021/06/25 00:13:56;;;;;;;24.48;21.83;;;;;;;16.53;70.00;99956.59;5009914;28;20142;-72
2021/06/25 00:16:21;;;;;;;29.25;21.73;;;;;;;16.55;69.96;99959.16;4990483;28;20030;-71
2021/06/25 00:18:47;;;;;;;27.52;20.65;;;;;;;16.52;70.44;99953.09;4991863;28;20034;-72
2021/06/25 00:21:12;;;;;;;26.85;21.63;;;;;;;16.52;70.09;99952.25;4991255;28;20049;-71
2021/06/25 00:23:38;;;;;;;30.80;21.73;;;;;;;16.50;70.37;99955.00;4991591;28;20065;-70
2021/06/25 00:26:03;;;;;;;21.15;18.85;;;;;;;16.54;69.73;99955.66;4991694;28;20054;-72
2021/06/25 00:28:28;;;;;;;28.67;25.30;;;;;;;16.54;69.18;99955.66;4972785;28;20049;-72
2021/06/25 00:30:54;;;;;;;29.50;23.90;;;;;;;16.55;69.24;99954.69;4990324;28;20450;-70
2021/06/25 00:33:19;;;;;;;37.95;24.83;;;;;;;16.56;68.54;99953.72;4991183;28;20038;-71
2021/06/25 00:35:45;;;;;;;27.10;22.67;;;;;;;16.56;68.54;99952.88;4990227;28;20065;-71
2021/06/25 00:38:11;;;;;;;29.13;23.40;;;;;;;16.56;68.40;99950.19;4989747;28;20049;-71
2021/06/25 00:40:36;;;;;;;29.42;24.42;;;;;;;16.57;68.40;99957.25;4989656;28;20034;-71
2021/06/25 00:43:03;;;;;;;30.33;24.45;;;;;;;16.56;67.82;99948.38;4989916;28;20043;-70
2021/06/25 00:45:30;;;;;;;27.98;25.00;;;;;;;16.55;67.77;99954.69;4989500;28;20030;-70
2021/06/25 00:47:56;;;;;;;31.98;26.23;;;;;;;16.53;68.19;99946.78;4989847;28;20039;-71
2021/06/25 00:50:27;;;;;;;36.97;26.63;;;;;;;16.52;67.93;99949.59;4990122;28;20040;-70
2021/06/25 00:52:55;;;;;;;29.05;25.15;;;;;;;16.51;68.58;99947.88;4972955;28;20031;-70
2021/06/25 00:55:22;;;;;;;31.70;26.42;;;;;;;16.46;68.14;99942.03;4990703;28;20038;-72
2021/06/25 00:57:49;;;;;;;30.58;26.05;;;;;;;16.42;68.58;99941.41;4990002;28;20030;-72
2021/06/25 01:00:15;;;;;;;34.00;27.27;;;;;;;16.36;68.36;99936.50;4990630;28;20034;-71
2021/06/25 01:02:42;;;;;;;34.05;27.55;;;;;;;16.34;68.63;99934.91;4964384;28;20402;-70
2021/06/25 01:05:09;;;;;;;31.13;25.25;;;;;;;16.30;68.42;99929.81;4990822;28;20026;-71
2021/06/25 01:07:34;;;;;;;35.15;26.73;;;;;;;16.27;69.07;99926.53;4992888;28;20069;-70
2021/06/25 01:10:03;;;;;;;31.15;26.75;;;;;;;16.25;68.79;99931.09;4992505;28;20100;-72
2021/06/25 01:12:28;;;;;;;40.45;28.48;;;;;;;16.22;68.98;99920.66;4991839;28;20030;-71
2021/06/25 01:14:54;;;;;;;36.30;28.05;;;;;;;16.18;69.10;99927.16;4973401;28;20034;-70
2021/06/25 01:17:34;;;;;;;38.50;29.20;;;;;;;16.12;69.28;99927.59;4990073;28;20030;-71
2021/06/25 01:20:03;;;;;;;45.17;30.02;;;;;;;16.07;69.30;99926.13;4990318;28;20041;-71
2021/06/25 01:22:34;;;;;;;40.55;30.63;;;;;;;16.04;69.17;99923.66;4987406;28;20054;-71
2021/06/25 01:25:16;;;;;;;33.15;28.63;;;;;;;16.03;69.43;99927.28;4991302;28;20038;-71
2021/06/25 01:27:42;;;;;;;36.13;28.63;;;;;;;16.03;69.08;99926.44;4991522;28;20038;-71
2021/06/25 01:30:12;;;;;;;35.97;28.83;;;;;;;16.03;69.35;99923.78;4990655;28;20034;-70
2021/06/25 01:32:38;;;;;;;33.75;30.02;;;;;;;16.02;69.38;99924.72;4973634;28;20044;-72
2021/06/25 01:35:04;;;;;;;39.00;30.13;;;;;;;15.97;69.69;99927.69;4991133;28;20117;-72
2021/06/25 01:37:30;;;;;;;37.90;31.95;;;;;;;15.94;69.71;99921.75;4990813;28;20030;-72
2021/06/25 01:39:56;;;;;;;33.80;29.55;;;;;;;15.92;69.83;99921.84;4990181;28;20039;-70
2021/06/25 01:42:22;;;;;;;34.53;29.88;;;;;;;15.87;70.28;99934.59;4988704;28;20429;-71
2021/06/25 01:44:50;;;;;;;34.58;29.70;;;;;;;15.84;70.42;99930.34;4989870;28;20109;-72
2021/06/25 01:47:16;;;;;;;34.95;29.95;;;;;;;15.80;70.64;99933.31;4990104;28;20046;-70
2021/06/25 01:49:41;;;;;;;40.92;31.23;;;;;;;15.75;71.07;99932.78;4989368;28;20068;-71
2021/06/25 01:52:07;;;;;;;37.85;31.23;;;;;;;15.72;71.27;99923.22;4989708;28;20579;-70
2021/06/25 01:54:32;;;;;;;35.45;29.45;;;;;;;15.67;71.34;99922.66;4972559;28;20550;-70
2021/06/25 01:56:58;;;;;;;36.15;29.70;;;;;;;15.66;71.56;99927.13;4992875;28;20058;-70
2021/06/25 01:59:23;;;;;;;33.97;29.13;;;;;;;15.63;71.70;99922.03;4993315;28;20042;-71
2021/06/25 02:01:49;;;;;;;43.42;33.47;;;;;;;15.60;72.05;99922.25;4993355;28;20030;-71
2021/06/25 02:04:14;;;;;;;36.45;28.85;;;;;;;15.56;72.42;99915.41;4993469;28;20525;-70
2021/06/25 02:06:40;;;;;;;39.17;32.15;;;;;;;15.56;72.42;99917.22;4992584;28;20030;-71
2021/06/25 02:09:05;;;;;;;35.70;30.27;;;;;;;15.52;72.41;99905.94;4993528;28;20054;-70
2021/06/25 02:11:30;;;;;;;40.55;33.85;;;;;;;15.49;72.81;99913.28;4993543;28;20030;-70
2021/06/25 02:13:56;;;;;;;41.63;32.30;;;;;;;15.44;72.77;99911.78;4993057;28;20039;-73
2021/06/25 02:16:21;;;;;;;39.90;32.13;;;;;;;15.42;72.85;99913.69;4992547;28;20048;-71
2021/06/25 02:18:46;;;;;;;38.65;34.22;;;;;;;15.41;72.92;99913.81;4989732;28;20042;-71
2021/06/25 02:21:12;;;;;;;39.40;33.15;;;;;;;15.42;73.13;99920.81;4992854;28;20061;-72
2021/06/25 02:23:38;;;;;;;42.50;34.58;;;;;;;15.42;73.00;99908.38;4992797;28;20088;-71
2021/06/25 02:26:04;;;;;;;48.45;37.25;;;;;;;15.43;73.15;99917.19;4993242;28;20042;-70
2021/06/25 02:28:29;;;;;;;40.78;33.13;;;;;;;15.44;73.17;99913.59;4992355;28;20109;-70
2021/06/25 02:30:55;;;;;;;39.15;29.60;;;;;;;15.46;72.83;99915.19;4992562;28;20099;-71
2021/06/25 02:33:21;;;;;;;45.60;34.83;;;;;;;15.50;72.60;99915.81;4992798;28;20053;-70
2021/06/25 02:35:47;;;;;;;43.08;34.90;;;;;;;15.50;72.18;99915.81;4992494;28;20030;-71
2021/06/25 02:38:12;;;;;;;47.67;34.20;;;;;;;15.50;72.17;99905.19;4992515;28;20088;-70
2021/06/25 02:40:38;;;;;;;41.25;31.85;;;;;;;15.48;71.90;99903.59;4992109;28;20046;-71
2021/06/25 02:43:03;;;;;;;41.83;33.80;;;;;;;15.44;71.76;99897.66;4992951;28;20034;-72
2021/06/25 02:45:29;;;;;;;39.13;34.25;;;;;;;15.43;71.78;99899.47;4992298;28;20038;-71
2021/06/25 02:47:55;;;;;;;39.10;33.25;;;;;;;15.40;71.80;99904.13;4990930;28;20510;-71
2021/06/25 02:50:20;;;;;;;35.10;30.83;;;;;;;15.37;72.04;99893.69;4991535;28;20465;-71
2021/06/25 02:52:45;;;;;;;45.10;34.22;;;;;;;15.31;72.33;99896.75;4992089;28;20044;-70
2021/06/25 02:55:12;;;;;;;52.05;37.50;;;;;;;15.25;71.96;99890.91;4992031;28;20092;-70
2021/06/25 02:57:38;;;;;;;41.00;35.05;;;;;;;15.20;72.31;99894.84;4991618;28;20110;-70
2021/06/25 03:00:10;;;;;;;42.65;36.65;;;;;;;15.14;72.56;99892.59;4992084;28;20518;-70
2021/06/25 03:02:36;;;;;;;44.40;35.45;;;;;;;15.11;72.54;99898.09;4991759;28;20034;-71
2021/06/25 03:05:03;;;;;;;44.83;35.00;;;;;;;15.10;72.70;99893.75;4992383;28;20105;-70
2021/06/25 03:07:28;;;;;;;46.15;37.30;;;;;;;15.09;72.68;99886.72;4990777;28;20038;-72
2021/06/25 03:09:54;;;;;;;45.63;34.97;;;;;;;15.06;72.50;99885.13;4991599;28;20121;-71
2021/06/25 03:12:19;;;;;;;41.88;34.75;;;;;;;15.05;72.92;99883.44;4974157;28;20089;-69
2021/06/25 03:14:44;;;;;;;41.42;33.85;;;;;;;15.02;73.07;99886.28;4992103;28;20035;-70
2021/06/25 03:17:10;;;;;;;43.83;36.20;;;;;;;14.96;73.45;99886.69;4991466;28;20068;-71
2021/06/25 03:19:36;;;;;;;43.63;35.30;;;;;;;14.89;73.70;99888.03;4977565;28;20045;-71
2021/06/25 03:22:02;;;;;;;48.17;35.35;;;;;;;14.80;74.05;99895.66;4972572;28;20090;-70
2021/06/25 03:24:27;;;;;;;48.55;35.05;;;;;;;14.74;74.36;99897.84;4972425;28;20031;-70
2021/06/25 03:26:52;;;;;;;52.67;40.42;;;;;;;14.69;74.98;99903.44;4972329;28;20046;-70
2021/06/25 03:29:18;;;;;;;50.75;40.13;;;;;;;14.60;75.05;99896.94;4971592;28;20050;-70
2021/06/25 03:31:43;;;;;;;55.22;44.38;;;;;;;14.50;75.77;99892.31;4971759;28;20031;-70
2021/06/25 03:34:09;;;;;;;48.88;39.40;;;;;;;14.49;75.57;99894.06;4971361;28;20042;-71
2021/06/25 03:36:34;;;;;;;42.83;36.42;;;;;;;14.50;75.80;99903.75;4971900;28;20039;-69
2021/06/25 03:38:59;;;;;;;49.67;40.28;;;;;;;14.46;76.16;99896.94;4971463;28;20042;-70
2021/06/25 03:41:25;;;;;;;55.15;42.30;;;;;;;14.44;75.88;99896.19;4972006;28;20043;-71
2021/06/25 03:43:50;;;;;;;51.03;41.55;;;;;;;14.37;76.13;99900.16;4971657;28;20129;-69
2021/06/25 03:46:17;;;;;;;47.45;38.45;;;;;;;14.35;76.25;99902.09;4971530;28;20039;-70
2021/06/25 03:48:42;;;;;;;54.30;42.95;;;;;;;14.35;76.72;99899.44;4971434;28;20038;-68
2021/06/25 03:51:07;;;;;;;51.35;40.95;;;;;;;14.34;76.57;99909.16;4971076;28;20050;-70
2021/06/25 03:53:33;;;;;;;52.30;40.70;;;;;;;14.30;76.69;99907.69;4954437;28;20074;-69
2021/06/25 03:56:10;;;;;;;53.95;39.53;;;;;;;14.29;76.77;99903.31;4971196;28;20053;-70
2021/06/25 03:58:39;;;;;;;55.58;39.90;;;;;;;14.26;76.72;99900.84;4971377;28;20042;-70
2021/06/25 04:01:05;;;;;;;47.13;36.75;;;;;;;14.23;77.06;99898.41;4971453;28;20045;-70
2021/06/25 04:03:30;;;;;;;54.47;43.35;;;;;;;14.23;76.83;99898.41;4971490;28;20030;-70
2021/06/25 04:05:56;;;;;;;46.92;38.40;;;;;;;14.24;77.07;99899.25;4953754;28;20147;-69
2021/06/25 04:08:24;;;;;;;52.45;44.22;;;;;;;14.26;76.68;99884.94;4953842;28;20042;-71
2021/06/25 04:10:49;;;;;;;49.10;38.55;;;;;;;14.27;77.03;99894.59;4973495;28;20035;-69
2021/06/25 04:13:15;;;;;;;57.70;43.50;;;;;;;14.31;77.05;99893.44;4971032;28;20089;-70
2021/06/25 04:15:40;;;;;;;45.65;38.72;;;;;;;14.30;77.12;99891.75;4971010;28;20058;-71
2021/06/25 04:18:06;;;;;;;54.50;43.47;;;;;;;14.28;76.99;99891.00;4971224;28;20038;-70
2021/06/25 04:20:31;;;;;;;53.10;42.63;;;;;;;14.27;77.18;99891.94;4971105;28;20485;-70
2021/06/25 04:22:57;;;;;;;51.08;41.80;;;;;;;14.31;76.98;99885.50;4971339;28;20038;-70
2021/06/25 04:25:22;;;;;;;49.05;41.50;;;;;;;14.38;76.79;99893.94;4970888;28;20110;-70
2021/06/25 04:27:48;;;;;;;46.78;39.58;;;;;;;14.38;76.75;99894.78;4970801;28;20034;-69
2021/06/25 04:30:14;;;;;;;50.03;41.15;;;;;;;14.42;76.59;99898.06;4953522;28;20038;-70
2021/06/25 04:32:41;;;;;;;45.90;39.00;;;;;;;14.46;76.52;99896.94;4971274;28;20027;-71
2021/06/25 04:35:07;;;;;;;46.50;40.25;;;;;;;14.45;76.58;99903.19;4971501;28;20094;-71
2021/06/25 04:37:32;;;;;;;57.85;46.85;;;;;;;14.50;76.42;99908.22;4970984;28;20114;-70
2021/06/25 04:39:57;;;;;;;55.30;44.22;;;;;;;14.49;76.48;99902.03;4970510;28;20031;-70
2021/06/25 04:42:23;;;;;;;57.22;43.58;;;;;;;14.52;76.37;99891.25;4970652;28;20031;-70
2021/06/25 04:44:48;;;;;;;53.97;43.30;;;;;;;14.54;76.34;99894.66;4970806;28;20039;-71
2021/06/25 04:47:13;;;;;;;56.00;43.20;;;;;;;14.60;76.26;99901.41;4970591;28;20041;-70
2021/06/25 04:49:40;;;;;;;50.65;40.50;;;;;;;14.62;75.62;99899.50;4970581;28;20126;-70
2021/06/25 04:52:07;;;;;;;55.30;39.97;;;;;;;14.69;75.34;99905.25;4970759;28;20115;-70
2021/06/25 04:54:33;;;;;;;50.88;39.78;;;;;;;14.74;75.36;99889.88;4970858;28;20050;-71
2021/06/25 04:56:59;;;;;;;56.90;42.58;;;;;;;14.79;75.21;99896.63;4936069;28;20030;-70
2021/06/25 04:59:25;;;;;;;52.55;41.42;;;;;;;14.82;74.58;99891.09;4970545;28;20435;-71
2021/06/25 05:01:50;;;;;;;51.95;41.95;;;;;;;14.89;74.46;99893.34;4969024;28;20644;-71
2021/06/25 05:04:15;;;;;;;56.15;43.58;;;;;;;14.94;73.98;99889.44;4970499;28;20041;-71
2021/06/25 05:06:41;;;;;;;49.00;38.97;;;;;;;15.03;73.80;99891.47;4969971;28;20071;-71
2021/06/25 05:09:06;;;;;;;52.22;39.88;;;;;;;15.14;73.62;99888.13;4970710;28;20042;-70
2021/06/25 05:11:32;;;;;;;46.53;37.53;;;;;;;15.32;72.76;99890.50;4970702;28;20450;-70
2021/06/25 05:13:57;;;;;;;45.88;37.38;;;;;;;15.50;72.28;99888.41;4970406;28;20511;-70
2021/06/25 05:16:22;;;;;;;54.00;38.17;;;;;;;15.68;71.09;99893.31;4970023;28;20039;-70
2021/06/25 05:18:48;;;;;;;42.40;37.88;;;;;;;15.79;70.71;99892.59;4952734;28;20039;-70
2021/06/25 05:21:13;;;;;;;44.67;37.47;;;;;;;15.83;70.54;99891.44;4969928;28;20553;-71
2021/06/25 05:23:39;;;;;;;42.15;34.67;;;;;;;15.97;70.25;99886.97;4969938;28;20038;-72
2021/06/25 05:26:04;;;;;;;42.53;35.85;;;;;;;16.05;69.23;99884.63;4970227;28;20055;-70
2021/06/25 05:28:30;;;;;;;41.65;36.08;;;;;;;16.12;69.25;99879.72;4972328;28;20388;-72
2021/06/25 05:30:55;;;;;;;43.00;33.28;;;;;;;16.28;68.82;99881.19;4972088;28;20034;-72
2021/06/25 05:33:21;;;;;;;39.10;34.80;;;;;;;16.43;68.02;99875.72;4974174;28;20034;-70
2021/06/25 05:35:48;;;;;;;42.15;36.13;;;;;;;16.53;67.49;99882.91;4974281;28;20031;-71
2021/06/25 05:38:14;;;;;;;47.90;35.75;;;;;;;16.61;66.96;99878.84;4973783;28;20450;-70
2021/06/25 05:40:41;;;;;;;41.30;33.00;;;;;;;16.80;66.24;99876.56;4956722;28;20031;-70
2021/06/25 05:43:07;;;;;;;42.45;33.15;;;;;;;17.01;64.93;99868.81;4974435;28;20038;-71
2021/06/25 05:45:35;;;;;;;44.40;31.90;;;;;;;17.27;63.68;99874.84;4974057;28;20606;-70
2021/06/25 05:48:01;;;;;;;37.47;31.23;;;;;;;17.37;63.20;99870.50;4973462;28;20415;-73
2021/06/25 05:50:26;;;;;;;37.90;29.80;;;;;;;17.44;62.63;99868.22;4973513;28;20034;-71
2021/06/25 05:52:52;;;;;;;33.90;30.20;;;;;;;17.56;61.83;99885.09;4955778;28;20050;-71
2021/06/25 05:55:17;;;;;;;39.85;31.15;;;;;;;17.73;61.18;99875.81;4973855;28;20042;-73
2021/06/25 05:57:45;;;;;;;34.33;30.58;;;;;;;17.90;60.30;99877.19;4973181;28;20063;-71
2021/06/25 06:00:11;;;;;;;39.03;31.10;;;;;;;18.07;59.51;99873.22;4974511;28;20027;-71
2021/06/25 06:02:36;;;;;;;31.50;28.10;;;;;;;18.19;58.95;99877.56;5004867;28;20027;-72
2021/06/25 06:05:03;;;;;;;35.03;29.55;;;;;;;18.01;59.13;99874.50;4982192;28;20025;-70
2021/06/25 06:07:29;;;;;;;40.40;30.23;;;;;;;17.84;60.15;99869.66;5010222;28;21622;-69
2021/06/25 06:09:54;;;;;;;36.55;29.25;;;;;;;17.83;59.89;99870.63;5012900;28;20030;-70
2021/06/25 06:12:21;;;;;;;33.42;28.73;;;;;;;17.73;59.49;99865.97;5004209;28;20049;-71
2021/06/25 06:14:46;;;;;;;37.95;28.55;;;;;;;17.76;59.82;99873.75;5003151;28;20050;-70
2021/06/25 06:17:12;;;;;;;40.67;29.52;;;;;;;17.73;59.69;99876.66;5011354;28;20066;-72
2021/06/25 06:19:39;;;;;;;34.88;27.77;;;;;;;17.75;59.41;99877.38;5012609;28;20429;-72
2021/06/25 06:33:07;;;;;;;26.58;21.27;;;;;;;18.27;56.36;99864.44;5011825;28;20064;-71
2021/06/25 06:35:33;;;;;;;28.80;23.50;;;;;;;18.30;56.22;99866.03;5011953;28;20480;-71
2021/06/25 06:38:02;;;;;;;25.98;20.27;;;;;;;18.31;55.85;99868.59;5011286;28;20037;-70
2021/06/25 06:40:29;;;;;;;27.20;21.38;;;;;;;18.51;55.74;99869.66;5011836;28;20038;-72
2021/06/25 06:42:54;;;;;;;24.85;21.90;;;;;;;18.71;54.75;99870.69;5000053;28;20532;-72
2021/06/25 06:45:20;;;;;;;31.85;20.13;;;;;;;18.80;54.18;99871.78;5011413;28;20034;-72
2021/06/25 06:47:46;;;;;;;25.50;19.90;;;;;;;19.04;53.98;99867.06;5011621;28;20068;-72
2021/06/25 06:50:12;;;;;;;23.67;18.50;;;;;;;19.19;51.16;99872.97;5011382;28;20033;-71
2021/06/25 06:52:42;;;;;;;23.50;17.25;;;;;;;19.28;50.34;99877.53;5012073;28;20037;-72
2021/06/25 06:55:09;;;;;;;17.88;14.07;;;;;;;19.43;50.14;99875.41;5012026;28;20648;-70
2021/06/25 06:57:35;;;;;;;19.10;15.23;;;;;;;19.35;49.40;99877.03;5011401;28;20033;-71
2021/06/25 07:00:02;;;;;;;18.77;15.48;;;;;;;19.37;49.83;99873.25;5011523;28;20034;-71
2021/06/25 07:02:28;;;;;;;19.13;15.10;;;;;;;19.36;50.08;99876.88;5011745;28;20096;-71
2021/06/25 07:04:53;;;;;;;23.05;16.50;;;;;;;19.55;50.17;99881.53;5011896;28;20037;-71
2021/06/25 07:07:18;;;;;;;17.35;15.32;;;;;;;19.52;50.69;99885.31;5011692;28;20100;-73
2021/06/25 07:09:44;;;;;;;19.08;15.18;;;;;;;19.59;50.79;99882.09;5012592;28;20037;-72
2021/06/25 07:12:09;;;;;;;19.45;14.35;;;;;;;19.70;50.40;99882.91;5012268;28;20030;-71
2021/06/25 07:14:35;;;;;;;19.80;14.95;;;;;;;19.88;49.46;99879.63;5011598;28;20037;-71
2021/06/25 07:17:01;;;;;;;15.60;13.85;;;;;;;19.85;47.65;99872.72;5002585;28;20113;-71
2021/06/25 07:19:26;;;;;;;16.77;13.95;;;;;;;19.87;47.34;99876.13;5013095;28;20097;-72
2021/06/25 07:21:52;;;;;;;19.50;14.40;;;;;;;19.89;47.20;99871.50;5011541;28;20156;-71
2021/06/25 07:24:17;;;;;;;18.52;14.07;;;;;;;19.86;46.85;99874.44;5010951;28;20026;-72
2021/06/25 07:26:42;;;;;;;16.95;12.10;;;;;;;20.06;47.18;99875.38;5010447;28;20030;-72
2021/06/25 07:29:09;;;;;;;16.58;14.50;;;;;;;20.32;45.58;99866.88;4980148;28;20491;-71
2021/06/25 07:31:35;;;;;;;20.27;13.43;;;;;;;20.62;45.15;99871.34;4961731;28;20129;-71
2021/06/25 07:34:00;;;;;;;15.27;13.30;;;;;;;20.84;43.87;99866.72;4972181;28;20086;-72
2021/06/25 07:36:25;;;;;;;16.70;13.23;;;;;;;21.17;43.70;99866.31;4971284;28;20046;-71
2021/06/25 07:38:51;;;;;;;27.85;14.60;;;;;;;21.58;43.25;99860.78;4971614;28;20037;-71
2021/06/25 07:41:16;;;;;;;15.73;13.07;;;;;;;21.76;41.59;99858.22;4971583;28;20031;-71
2021/06/25 07:43:41;;;;;;;15.15;12.07;;;;;;;22.31;40.27;99861.00;4954484;28;20035;-71
2021/06/25 07:46:07;;;;;;;14.80;12.57;;;;;;;22.91;39.60;99857.78;4954247;28;20047;-72
2021/06/25 07:48:33;;;;;;;16.60;12.45;;;;;;;23.07;38.50;99854.44;4971413;28;20030;-72
2021/06/25 07:50:59;;;;;;;13.25;11.95;;;;;;;23.16;38.08;99856.22;4971474;28;20388;-71
2021/06/25 07:53:24;;;;;;;15.77;11.60;;;;;;;23.15;38.20;99863.41;4953669;28;20037;-72
2021/06/25 07:55:50;;;;;;;19.40;12.30;;;;;;;23.01;37.96;99855.88;4971875;28;20455;-71
2021/06/25 07:58:17;;;;;;;13.95;12.40;;;;;;;22.78;38.57;99854.63;4973282;28;20118;-72
2021/06/25 08:00:43;;;;;;;14.77;12.02;;;;;;;22.74;38.97;99851.38;4971337;28;20114;-72
2021/06/25 08:03:09;;;;;;;43.80;15.32;;;;;;;22.65;39.20;99853.16;4954424;28;20118;-72
2021/06/25 08:05:34;;;;;;;15.55;12.52;;;;;;;22.45;38.49;99848.91;4964609;28;20035;-72
2021/06/25 08:07:59;;;;;;;19.73;12.27;;;;;;;22.23;39.20;99847.47;4970622;28;24483;-72
2021/06/25 08:10:25;;;;;;;17.95;12.95;;;;;;;22.46;39.54;99846.06;4970934;28;20034;-72
2021/06/25 08:12:50;;;;;;;13.40;11.95;;;;;;;22.62;39.13;99847.22;4953970;28;20034;-73
2021/06/25 08:15:16;;;;;;;12.35;10.93;;;;;;;22.73;38.34;99847.84;4971125;28;20043;-73
2021/06/25 08:17:41;;;;;;;15.90;12.60;;;;;;;22.82;38.07;99846.09;4970516;28;20038;-72
2021/06/25 08:20:07;;;;;;;11.80;10.20;;;;;;;22.97;38.23;99850.97;4970989;28;20031;-72
2021/06/25 08:22:33;;;;;;;12.05;10.68;;;;;;;23.17;36.84;99844.44;4970573;28;20085;-72
2021/06/25 08:24:59;;;;;;;13.30;11.02;;;;;;;23.27;36.72;99841.66;4970730;28;20042;-72
2021/06/25 08:27:24;;;;;;;16.63;12.73;;;;;;;23.11;37.19;99850.41;4970443;28;20045;-72
2021/06/25 08:29:51;;;;;;;15.00;12.32;;;;;;;23.09;37.09;99855.13;4970777;28;20113;-73
2021/06/25 08:32:16;;;;;;;13.95;11.23;;;;;;;23.34;36.87;99837.34;4970551;28;20638;-71
2021/06/25 08:34:42;;;;;;;12.88;10.57;;;;;;;23.43;36.20;99830.16;4970889;28;20030;-71
2021/06/25 08:37:07;;;;;;;12.32;8.93;;;;;;;23.30;36.80;99839.50;4970872;28;20462;-71
2021/06/25 08:39:34;;;;;;;15.32;11.70;;;;;;;23.10;36.29;99838.00;4970431;28;20110;-72
2021/06/25 08:42:04;;;;;;;16.98;10.68;;;;;;;22.75;37.18;99836.13;4970504;28;20058;-71
2021/06/25 08:44:38;;;;;;;14.15;10.23;;;;;;;22.36;37.85;99833.69;4970813;28;20027;-72
2021/06/25 08:47:08;;;;;;;11.23;9.98;;;;;;;22.28;38.22;99826.38;4970681;28;20093;-73
2021/06/25 08:49:36;;;;;;;20.20;10.60;;;;;;;22.35;38.38;99829.28;4970498;28;20039;-73
2021/06/25 08:52:03;;;;;;;12.05;10.15;;;;;;;22.20;38.13;99835.19;4953438;28;20227;-73
2021/06/25 08:54:29;;;;;;;17.13;11.32;;;;;;;22.16;38.21;99832.91;4970762;28;20034;-71
2021/06/25 08:56:56;;;;;;;10.95;9.43;;;;;;;22.27;38.13;99828.22;4970304;28;20038;-72
2021/06/25 08:59:21;;;;;;;19.85;10.85;;;;;;;22.46;38.11;99823.72;4970158;28;20035;-71
2021/06/25 09:01:48;;;;;;;14.75;10.15;;;;;;;22.61;38.47;99834.78;4970539;28;20039;-72
2021/06/25 09:04:34;;;;;;;13.80;10.07;;;;;;;22.75;37.60;99836.13;4970415;28;20081;-70
2021/06/25 09:07:15;;;;;;;;;;;;;;;22.73;37.80;99831.72;4971022;28;20043;-70
2021/06/25 09:09:43;;;;;;;10.00;9.00;;;;;;;22.83;37.52;99842.41;4970447;28;19918;-72
2021/06/25 09:12:13;;;;;;;15.55;10.45;;;;;;;22.95;37.22;99832.28;4969648;28;20446;-71
2021/06/25 09:15:00;;;;;;;12.85;11.27;;;;;;;22.72;36.93;99832.75;4953951;28;20110;-71
2021/06/25 09:17:27;;;;;;;13.40;11.00;;;;;;;22.79;36.54;99826.72;4969775;28;20045;-75
2021/06/25 09:19:54;;;;;;;9.88;8.88;;;;;;;22.93;39.14;99832.41;4984324;28;20042;-49
2021/06/25 09:22:19;;;;;;;13.90;11.30;;;;;;;23.22;36.88;99833.22;4985852;28;20125;-54
2021/06/25 09:25:02;;;;;;;21.33;10.70;;;;;;;23.45;36.02;99833.53;4987014;28;20558;-47
2021/06/25 09:27:29;;;;;;;14.60;10.05;;;;;;;23.88;35.93;99840.75;4992642;28;20034;-47
2021/06/25 09:29:55;;;;;;;12.20;10.90;;;;;;;23.99;35.59;99835.06;4991431;28;20549;-49
2021/06/25 09:32:20;;;;;;;12.38;10.25;;;;;;;23.84;36.14;99828.59;4989558;28;20035;-51
2021/06/25 09:34:50;;;;;;;15.15;11.52;;;;;;;24.04;35.51;99837.28;4989520;28;20371;-54
2021/06/25 09:37:19;;;;;;;13.77;10.50;;;;;;;24.18;35.54;99833.16;4999122;28;20457;-49
2021/06/25 09:39:58;;;;;;;12.98;10.75;;;;;;;24.76;34.65;99837.75;5008691;28;20030;-53
2021/06/25 09:42:24;;;;;;;15.93;11.15;;;;;;;25.04;33.99;99826.63;5008764;28;20061;-50
2021/06/25 09:45:16;;;;;;;11.80;10.60;;;;;;;25.63;32.64;99823.75;5008493;28;20062;-49
2021/06/25 09:47:52;;;;;;;12.40;10.57;;;;;;;26.47;31.74;99822.28;4987189;28;20042;-51
2021/06/25 09:50:20;;;;;;;12.25;10.95;;;;;;;26.96;30.78;99815.72;4985805;28;20077;-70
2021/06/25 09:52:55;;;;;;;13.25;11.82;;;;;;;27.05;30.27;99805.66;4988705;28;20119;-70
2021/06/25 09:55:24;;;;;;;12.20;10.95;;;;;;;26.89;30.39;99817.47;4989895;28;20035;-69
2021/06/25 10:03:34;;;;;;;12.27;10.27;;;;;;;27.01;30.17;99812.50;4977775;28;20049;-67
2021/06/25 10:06:13;;;;;;;15.43;11.25;;;;;;;26.77;30.38;99806.22;4959590;28;20092;-68
2021/06/25 10:08:40;;;;;;;10.38;9.25;;;;;;;26.92;30.61;99814.41;4972168;28;20513;-67
2021/06/25 10:11:08;;;;;;;10.63;9.63;;;;;;;26.38;31.21;99809.81;4974783;28;20035;-67
2021/06/25 10:13:35;;;;;;;12.88;10.75;;;;;;;25.55;32.71;99815.66;4988561;28;20461;-68
2021/06/25 10:16:03;;;;;;;13.32;11.93;;;;;;;25.53;32.13;99818.53;4989720;28;20046;-68
2021/06/25 10:18:34;;;;;;;18.88;13.32;;;;;;;26.15;31.71;99804.38;4991600;28;20026;-67
2021/06/25 10:20:59;;;;;;;13.20;11.85;;;;;;;26.12;31.94;99807.44;4987129;28;20583;-66
2021/06/25 10:23:27;;;;;;;13.02;11.65;;;;;;;26.61;31.05;99807.19;4992709;28;20030;-66
2021/06/25 10:25:54;;;;;;;13.02;10.15;;;;;;;26.67;30.81;99800.22;4992581;28;20039;-67
2021/06/25 10:28:21;;;;;;;19.35;11.63;;;;;;;25.63;32.17;99800.28;4992491;28;20108;-67
2021/06/25 10:30:46;;;;;;;14.55;11.23;;;;;;;26.34;31.62;99795.81;4992880;28;20026;-70
2021/06/25 10:33:12;;;;;;;12.95;11.43;;;;;;;26.19;31.26;99804.84;4983898;28;20031;-66
2021/06/25 10:35:39;;;;;;;13.43;11.48;;;;;;;26.72;30.63;99795.09;4975407;28;20039;-66
2021/06/25 10:38:05;;;;;;;10.65;9.55;;;;;;;27.27;30.14;99801.28;4992165;28;20034;-67
2021/06/25 10:40:30;;;;;;;10.68;9.55;;;;;;;27.87;29.33;99797.66;4990709;28;20045;-66
2021/06/25 10:42:57;;;;;;;12.13;10.82;;;;;;;27.87;28.24;99791.41;4992416;28;20041;-66
2021/06/25 10:45:42;;;;;;;16.85;9.77;;;;;;;28.08;27.96;99796.88;4992343;28;20030;-68
2021/06/25 10:48:07;;;;;;;26.73;10.85;;;;;;;28.12;28.12;99798.19;4984177;28;20046;-66
2021/06/25 10:50:33;;;;;;;15.38;10.05;;;;;;;28.40;28.29;99794.75;4992943;28;20034;-66
2021/06/25 10:53:15;;;;;;;12.20;10.38;;;;;;;28.18;28.46;99793.88;4992362;28;20387;-66
2021/06/25 10:55:45;;;;;;;15.57;11.48;;;;;;;28.22;28.30;99787.88;4992670;28;20559;-67
2021/06/25 10:58:22;;;;;;;18.45;11.20;;;;;;;28.43;28.41;99792.50;4992376;28;20044;-67
2021/06/25 11:00:56;;;;;;;12.05;10.85;;;;;;;27.85;29.05;99788.84;4990716;28;20491;-66
2021/06/25 11:03:37;;;;;;;12.23;10.93;;;;;;;26.90;30.28;99786.69;4992229;28;20379;-66
2021/06/25 11:06:05;;;;;;;13.07;10.32;;;;;;;26.24;31.43;99788.97;4992050;28;20061;-67
2021/06/25 11:08:31;;;;;;;13.00;9.82;;;;;;;25.96;32.29;99788.56;4991990;28;20030;-68
2021/06/25 11:10:58;;;;;;;12.98;10.30;;;;;;;25.55;32.11;99784.13;4992287;28;20555;-69
2021/06/25 11:13:26;;;;;;;15.85;9.48;;;;;;;25.42;32.41;99778.41;4992317;28;20070;-68
2021/06/25 11:15:56;;;;;;;10.63;9.57;;;;;;;25.52;32.89;99776.34;4991797;28;20069;-68
2021/06/25 11:18:29;;;;;;;10.35;8.60;;;;;;;25.54;32.45;99770.78;4991886;28;20034;-69
2021/06/25 11:21:00;;;;;;;14.13;9.65;;;;;;;25.27;32.52;99780.94;4991889;28;20034;-68
2021/06/25 11:23:28;;;;;;;10.60;9.50;;;;;;;24.75;33.54;99773.19;4981383;28;20470;-69
2021/06/25 11:25:53;;;;;;;9.80;8.77;;;;;;;24.26;34.28;99768.50;4991994;28;20034;-69
2021/06/25 11:28:24;;;;;;;11.13;9.15;;;;;;;24.33;35.07;99769.53;4974192;28;20122;-70
2021/06/25 11:31:17;;;;;;;12.25;10.63;;;;;;;24.66;35.03;99764.22;4972100;28;20036;-69
2021/06/25 11:33:57;;;;;;;11.77;10.05;;;;;;;24.68;34.45;99770.31;4972783;28;20610;-70